Time;durP1;ratioP1;P1;durP2;ratioP2;P2;SDS_P1;SDS_P2;PMS_P1;PMS_P2;Temp;Humidity;BMP_temperature;BMP_pressure;BME280_temperature;BME280_humidity;BME280_pressure;Samples;Min_cycle;Max_cycle;Signal;HPM_P1;HPM_P2
2023/12/03 00:00:09;;;;;;;62.63;20.00;;;;;;;;;;1043409;28;20044;-67
2023/12/03 00:00:41;;;;;;;57.25;19.75;;;;;;;;;;1042594;28;20045;-67
2023/12/03 00:01:31;;;;;;;47.45;18.02;;;;;;;;;;1042296;28;20139;-67
2023/12/03 00:02:05;;;;;;;36.95;14.88;;;;;;;;;;1046784;28;20044;-67
2023/12/03 00:02:37;;;;;;;36.38;15.93;;;;;;;;;;1043882;28;20067;-66
2023/12/03 00:03:08;;;;;;;54.08;17.98;;;;;;;;;;1042577;28;20075;-67
2023/12/03 00:03:39;;;;;;;42.38;17.33;;;;;;;;;;1041198;28;20111;-67
2023/12/03 00:04:10;;;;;;;47.20;18.65;;;;;;;;;;1043049;28;20063;-67
2023/12/03 00:04:42;;;;;;;31.25;11.57;;;;;;;;;;1042767;28;20459;-67
2023/12/03 00:05:14;;;;;;;53.90;18.83;;;;;;;;;;1042936;28;20064;-67
2023/12/03 00:05:44;;;;;;;46.50;18.80;;;;;;;;;;1041861;28;20053;-67
2023/12/03 00:06:15;;;;;;;56.13;19.77;;;;;;;;;;1043526;28;20093;-66
2023/12/03 00:06:46;;;;;;;45.70;18.13;;;;;;;;;;1042843;28;20093;-67
2023/12/03 00:07:16;;;;;;;51.10;18.38;;;;;;;;;;1041728;28;20549;-67
2023/12/03 00:07:49;;;;;;;41.47;16.17;;;;;;;;;;1042736;28;20107;-67
2023/12/03 00:08:20;;;;;;;51.95;16.15;;;;;;;;;;1041649;28;20056;-67
2023/12/03 00:08:50;;;;;;;55.05;18.95;;;;;;;;;;1044158;28;20105;-67
2023/12/03 00:09:21;;;;;;;42.38;15.80;;;;;;;;;;1041512;28;20130;-66
2023/12/03 00:09:52;;;;;;;35.80;14.50;;;;;;;;;;1042778;28;20777;-67
2023/12/03 00:10:23;;;;;;;29.23;13.30;;;;;;;;;;1041277;28;20048;-68
2023/12/03 00:10:54;;;;;;;50.05;17.45;;;;;;;;;;1043195;28;20052;-66
2023/12/03 00:11:25;;;;;;;46.78;17.13;;;;;;;;;;1043487;28;20041;-66
2023/12/03 00:11:55;;;;;;;49.33;18.17;;;;;;;;;;1042521;28;20413;-67
2023/12/03 00:12:26;;;;;;;44.33;16.55;;;;;;;;;;1041529;28;20048;-67
2023/12/03 00:12:57;;;;;;;45.45;18.83;;;;;;;;;;1044095;28;20048;-67
2023/12/03 00:13:27;;;;;;;41.10;16.30;;;;;;;;;;1043428;28;20046;-66
2023/12/03 00:13:58;;;;;;;51.60;18.80;;;;;;;;;;1044199;28;20051;-67
2023/12/03 00:14:28;;;;;;;45.65;16.30;;;;;;;;;;1044588;28;20049;-67
2023/12/03 00:14:59;;;;;;;37.88;15.35;;;;;;;;;;1041500;28;20692;-68
2023/12/03 00:15:30;;;;;;;43.97;15.70;;;;;;;;;;1042616;28;20068;-67
2023/12/03 00:16:00;;;;;;;47.72;16.60;;;;;;;;;;1042486;28;20032;-67
2023/12/03 00:16:31;;;;;;;52.80;18.30;;;;;;;;;;1042926;28;20053;-67
2023/12/03 00:17:01;;;;;;;41.92;16.50;;;;;;;;;;1044910;28;20139;-66
2023/12/03 00:17:32;;;;;;;43.05;15.70;;;;;;;;;;1042924;28;20044;-66
2023/12/03 00:18:03;;;;;;;47.42;18.10;;;;;;;;;;1044294;28;20542;-67
2023/12/03 00:18:33;;;;;;;35.22;14.63;;;;;;;;;;1043435;28;20510;-67
2023/12/03 00:19:04;;;;;;;44.10;18.65;;;;;;;;;;1043647;28;20063;-66
2023/12/03 00:19:35;;;;;;;37.75;15.13;;;;;;;;;;1044022;28;20466;-67
2023/12/03 00:20:06;;;;;;;39.42;13.52;;;;;;;;;;1042178;28;20531;-67
2023/12/03 00:20:36;;;;;;;42.25;17.17;;;;;;;;;;1041807;28;20041;-67
2023/12/03 00:21:07;;;;;;;36.10;13.40;;;;;;;;;;1043024;28;20041;-67
2023/12/03 00:21:38;;;;;;;36.30;15.63;;;;;;;;;;1044232;28;20485;-67
2023/12/03 00:22:08;;;;;;;41.50;16.48;;;;;;;;;;1042549;28;20055;-67
2023/12/03 00:22:39;;;;;;;47.35;16.65;;;;;;;;;;1043014;28;20052;-67
2023/12/03 00:23:10;;;;;;;42.20;17.38;;;;;;;;;;1044609;28;20041;-66
2023/12/03 00:23:40;;;;;;;39.80;15.95;;;;;;;;;;1040237;28;20045;-67
2023/12/03 00:24:11;;;;;;;37.38;14.05;;;;;;;;;;1041037;28;20701;-67
2023/12/03 00:24:41;;;;;;;40.95;15.25;;;;;;;;;;1040656;28;20599;-67
2023/12/03 00:25:12;;;;;;;49.03;18.48;;;;;;;;;;1043352;28;20044;-67
2023/12/03 00:25:42;;;;;;;44.10;16.38;;;;;;;;;;1048246;28;20063;-67
2023/12/03 00:26:13;;;;;;;41.35;16.73;;;;;;;;;;1048561;28;20047;-67
2023/12/03 00:26:44;;;;;;;39.65;16.00;;;;;;;;;;1045709;28;20135;-67
2023/12/03 00:27:14;;;;;;;42.33;14.20;;;;;;;;;;1044689;28;20177;-67
2023/12/03 00:27:45;;;;;;;34.15;13.38;;;;;;;;;;1045075;28;20044;-67
2023/12/03 00:28:15;;;;;;;32.42;14.85;;;;;;;;;;1044731;28;20389;-67
2023/12/03 00:28:46;;;;;;;36.05;14.60;;;;;;;;;;1043806;28;20420;-67
2023/12/03 00:29:16;;;;;;;40.05;15.95;;;;;;;;;;1045053;28;20044;-67
2023/12/03 00:29:47;;;;;;;49.63;17.45;;;;;;;;;;1049324;28;20048;-67
2023/12/03 00:30:19;;;;;;;44.05;16.73;;;;;;;;;;1048265;28;20094;-67
2023/12/03 00:30:49;;;;;;;53.45;17.83;;;;;;;;;;1047088;28;20079;-67
2023/12/03 00:31:20;;;;;;;31.48;14.10;;;;;;;;;;1049246;28;20036;-67
2023/12/03 00:31:51;;;;;;;47.78;19.25;;;;;;;;;;1049400;28;20112;-67
2023/12/03 00:32:22;;;;;;;37.47;15.43;;;;;;;;;;1048272;28;20043;-68
2023/12/03 00:32:52;;;;;;;38.03;15.50;;;;;;;;;;1050643;28;20071;-67
2023/12/03 00:33:23;;;;;;;37.40;14.68;;;;;;;;;;1050207;28;20080;-67
2023/12/03 00:33:54;;;;;;;45.55;16.80;;;;;;;;;;1048380;28;20070;-67
2023/12/03 00:34:24;;;;;;;32.15;14.15;;;;;;;;;;1049508;28;20383;-67
2023/12/03 00:34:55;;;;;;;42.30;16.05;;;;;;;;;;1048659;28;20506;-67
2023/12/03 00:35:25;;;;;;;37.28;15.38;;;;;;;;;;1049444;28;20127;-67
2023/12/03 00:35:59;;;;;;;38.78;16.02;;;;;;;;;;1049119;28;20427;-67
2023/12/03 00:36:29;;;;;;;49.28;17.55;;;;;;;;;;1047957;28;20044;-67
2023/12/03 00:37:00;;;;;;;45.80;16.92;;;;;;;;;;1050190;28;20123;-67
2023/12/03 00:37:30;;;;;;;43.20;17.00;;;;;;;;;;1047152;28;20495;-67
2023/12/03 00:38:01;;;;;;;41.08;16.58;;;;;;;;;;1044554;28;20052;-66
2023/12/03 00:38:32;;;;;;;41.25;16.90;;;;;;;;;;1047488;28;22290;-67
2023/12/03 00:39:03;;;;;;;47.85;17.50;;;;;;;;;;1049212;28;20066;-67
2023/12/03 00:39:33;;;;;;;41.47;14.95;;;;;;;;;;1045190;28;20563;-67
2023/12/03 00:40:05;;;;;;;37.63;14.20;;;;;;;;;;1043485;28;20045;-67
2023/12/03 00:40:37;;;;;;;40.70;16.42;;;;;;;;;;1043202;28;20055;-67
2023/12/03 00:41:07;;;;;;;28.98;14.23;;;;;;;;;;1043350;28;20041;-67
2023/12/03 00:41:38;;;;;;;41.53;16.88;;;;;;;;;;1045009;28;20439;-67
2023/12/03 00:42:09;;;;;;;36.95;15.73;;;;;;;;;;1043498;28;20053;-67
2023/12/03 00:42:39;;;;;;;32.70;13.65;;;;;;;;;;1042916;28;20044;-67
2023/12/03 00:43:10;;;;;;;39.55;14.73;;;;;;;;;;1042874;28;20373;-67
2023/12/03 00:43:40;;;;;;;40.83;14.65;;;;;;;;;;1042389;28;20491;-67
2023/12/03 00:44:11;;;;;;;40.05;14.80;;;;;;;;;;1042223;28;20102;-67
2023/12/03 00:44:41;;;;;;;37.13;13.32;;;;;;;;;;1041191;28;20040;-67
2023/12/03 00:45:12;;;;;;;42.97;16.35;;;;;;;;;;1042683;28;20053;-67
2023/12/03 00:45:43;;;;;;;39.38;14.90;;;;;;;;;;1041409;28;20071;-67
2023/12/03 00:46:16;;;;;;;35.35;16.23;;;;;;;;;;1042005;28;20049;-67
2023/12/03 00:46:46;;;;;;;37.30;15.32;;;;;;;;;;1042858;28;20059;-67
2023/12/03 00:47:17;;;;;;;30.10;13.00;;;;;;;;;;1045681;28;20044;-67
2023/12/03 00:47:47;;;;;;;37.78;15.85;;;;;;;;;;1042230;28;20579;-67
2023/12/03 00:48:18;;;;;;;33.35;13.77;;;;;;;;;;1042985;28;20053;-67
2023/12/03 00:48:49;;;;;;;39.20;15.68;;;;;;;;;;1042554;28;20128;-67
2023/12/03 00:49:19;;;;;;;43.10;16.23;;;;;;;;;;1042339;28;20043;-66
2023/12/03 00:49:50;;;;;;;34.40;14.77;;;;;;;;;;1042932;28;20107;-67
2023/12/03 00:50:21;;;;;;;43.65;15.98;;;;;;;;;;1044545;28;20041;-67
2023/12/03 00:50:51;;;;;;;34.83;15.60;;;;;;;;;;1045960;28;20080;-67
2023/12/03 00:51:22;;;;;;;38.53;14.85;;;;;;;;;;1042540;28;20051;-67
2023/12/03 00:51:52;;;;;;;40.60;15.18;;;;;;;;;;1044982;28;20775;-67
2023/12/03 00:52:23;;;;;;;38.72;15.63;;;;;;;;;;1040968;28;20048;-67
2023/12/03 00:52:53;;;;;;;34.03;12.27;;;;;;;;;;1042073;28;20643;-67
2023/12/03 00:53:24;;;;;;;36.83;14.88;;;;;;;;;;1042341;28;20041;-67
2023/12/03 00:53:55;;;;;;;36.38;14.77;;;;;;;;;;1044262;28;20052;-67
2023/12/03 00:54:26;;;;;;;43.30;16.30;;;;;;;;;;1041034;28;20752;-67
2023/12/03 00:54:57;;;;;;;37.67;14.85;;;;;;;;;;1042933;28;20060;-67
2023/12/03 00:55:27;;;;;;;35.67;14.13;;;;;;;;;;1042224;28;20083;-67
2023/12/03 00:55:58;;;;;;;36.00;14.18;;;;;;;;;;1043391;28;20071;-66
2023/12/03 00:56:28;;;;;;;34.20;14.55;;;;;;;;;;1041781;28;20511;-66
2023/12/03 00:56:59;;;;;;;37.67;14.80;;;;;;;;;;1043581;28;20180;-67
2023/12/03 00:57:30;;;;;;;36.30;13.55;;;;;;;;;;1042536;28;20065;-67
2023/12/03 00:58:01;;;;;;;35.03;15.30;;;;;;;;;;1043496;28;20040;-67
2023/12/03 00:58:31;;;;;;;42.50;13.40;;;;;;;;;;1042266;28;20044;-67
2023/12/03 00:59:02;;;;;;;42.60;17.23;;;;;;;;;;1041569;28;20052;-67
2023/12/03 00:59:32;;;;;;;31.00;13.55;;;;;;;;;;1042204;28;20049;-67
2023/12/03 01:00:04;;;;;;;39.47;15.57;;;;;;;;;;1044083;28;20037;-67
2023/12/03 01:00:34;;;;;;;35.05;14.55;;;;;;;;;;1042875;28;20056;-67
2023/12/03 01:01:05;;;;;;;39.10;14.95;;;;;;;;;;1043174;28;20115;-67
2023/12/03 01:01:35;;;;;;;36.85;15.35;;;;;;;;;;1041296;28;20084;-67
2023/12/03 01:02:06;;;;;;;35.63;14.55;;;;;;;;;;1042291;28;20052;-67
2023/12/03 01:02:37;;;;;;;34.75;14.00;;;;;;;;;;1041448;28;20056;-67
2023/12/03 01:03:07;;;;;;;30.00;12.55;;;;;;;;;;1042919;28;20072;-67
2023/12/03 01:03:38;;;;;;;41.08;15.93;;;;;;;;;;1041229;28;20049;-67
2023/12/03 01:04:09;;;;;;;32.08;12.55;;;;;;;;;;1042327;28;20044;-67
2023/12/03 01:04:39;;;;;;;40.42;15.60;;;;;;;;;;1043002;28;20045;-67
2023/12/03 01:05:10;;;;;;;30.40;13.07;;;;;;;;;;1041996;28;20806;-67
2023/12/03 01:05:40;;;;;;;32.47;13.18;;;;;;;;;;1041097;28;20045;-67
2023/12/03 01:06:11;;;;;;;35.55;14.35;;;;;;;;;;1043668;28;20659;-67
2023/12/03 01:06:43;;;;;;;39.03;14.88;;;;;;;;;;1042501;28;20056;-67
2023/12/03 01:07:14;;;;;;;41.88;14.95;;;;;;;;;;1041685;28;20825;-66
2023/12/03 01:07:44;;;;;;;33.35;15.60;;;;;;;;;;1041381;28;20463;-67
2023/12/03 01:08:15;;;;;;;36.95;14.18;;;;;;;;;;1042826;28;20056;-67
2023/12/03 01:08:46;;;;;;;36.70;15.77;;;;;;;;;;1043180;28;20432;-66
2023/12/03 01:09:16;;;;;;;49.40;15.35;;;;;;;;;;1041658;28;20496;-67
2023/12/03 01:09:47;;;;;;;33.35;13.98;;;;;;;;;;1044518;28;20059;-67
2023/12/03 01:10:17;;;;;;;38.35;15.38;;;;;;;;;;1044244;28;20044;-67
2023/12/03 01:10:48;;;;;;;42.00;14.35;;;;;;;;;;1041809;28;20043;-66
2023/12/03 01:11:18;;;;;;;32.78;14.02;;;;;;;;;;1042131;28;20049;-67
2023/12/03 01:11:50;;;;;;;31.13;12.80;;;;;;;;;;1042839;28;20126;-67
2023/12/03 01:12:21;;;;;;;40.03;15.93;;;;;;;;;;1041784;28;20147;-67
2023/12/03 01:12:52;;;;;;;30.48;13.48;;;;;;;;;;1042346;28;20087;-67
2023/12/03 01:13:22;;;;;;;30.13;14.80;;;;;;;;;;1042091;28;20045;-67
2023/12/03 01:13:53;;;;;;;37.05;14.82;;;;;;;;;;1042678;28;20061;-67
2023/12/03 01:14:24;;;;;;;38.45;14.40;;;;;;;;;;1041426;28;20569;-67
2023/12/03 01:14:54;;;;;;;35.83;13.27;;;;;;;;;;1041921;28;20044;-67
2023/12/03 01:15:25;;;;;;;39.83;16.48;;;;;;;;;;1042376;28;20063;-67
2023/12/03 01:15:55;;;;;;;33.88;15.13;;;;;;;;;;1049672;28;20491;-67
2023/12/03 01:16:26;;;;;;;35.60;14.30;;;;;;;;;;1046265;28;20171;-67
2023/12/03 01:16:56;;;;;;;33.42;15.27;;;;;;;;;;1045664;28;20783;-67
2023/12/03 01:17:27;;;;;;;41.25;17.08;;;;;;;;;;1042933;28;20136;-67
2023/12/03 01:17:57;;;;;;;44.03;14.77;;;;;;;;;;1041749;28;20053;-67
2023/12/03 01:18:28;;;;;;;41.35;16.00;;;;;;;;;;1042261;28;20052;-67
2023/12/03 01:18:58;;;;;;;42.00;14.52;;;;;;;;;;1044642;28;20048;-67
2023/12/03 01:19:29;;;;;;;33.42;14.20;;;;;;;;;;1043112;28;20044;-67
2023/12/03 01:20:00;;;;;;;29.85;12.55;;;;;;;;;;1043579;28;20043;-67
2023/12/03 01:20:31;;;;;;;39.38;15.20;;;;;;;;;;1042391;28;20111;-67
2023/12/03 01:21:02;;;;;;;36.30;15.20;;;;;;;;;;1043371;28;20045;-67
2023/12/03 01:21:32;;;;;;;36.42;14.93;;;;;;;;;;1044603;28;20056;-67
2023/12/03 01:22:03;;;;;;;43.22;16.55;;;;;;;;;;1041743;28;20454;-67
2023/12/03 01:22:34;;;;;;;42.08;16.48;;;;;;;;;;1042249;28;20086;-67
2023/12/03 01:23:04;;;;;;;42.83;15.63;;;;;;;;;;1041425;28;20045;-67
2023/12/03 01:23:35;;;;;;;37.17;14.52;;;;;;;;;;1042545;28;20820;-67
2023/12/03 01:24:06;;;;;;;29.15;12.05;;;;;;;;;;1043680;28;20072;-67
2023/12/03 01:24:36;;;;;;;39.13;16.48;;;;;;;;;;1041791;28;20412;-67
2023/12/03 01:25:07;;;;;;;43.10;15.25;;;;;;;;;;1042773;28;20111;-67
2023/12/03 01:25:38;;;;;;;37.30;16.58;;;;;;;;;;1043340;28;20420;-67
2023/12/03 01:26:08;;;;;;;32.88;13.93;;;;;;;;;;1043061;28;20556;-67
2023/12/03 01:26:39;;;;;;;42.75;16.05;;;;;;;;;;1043466;28;20075;-67
2023/12/03 01:27:09;;;;;;;41.20;15.27;;;;;;;;;;1041864;28;20040;-66
2023/12/03 01:27:40;;;;;;;40.08;16.50;;;;;;;;;;1042230;28;20056;-66
2023/12/03 01:28:11;;;;;;;42.25;15.68;;;;;;;;;;1042199;28;20051;-67
2023/12/03 01:28:41;;;;;;;33.92;13.50;;;;;;;;;;1043446;28;20049;-67
2023/12/03 01:29:12;;;;;;;36.85;15.43;;;;;;;;;;1046220;28;20051;-67
2023/12/03 01:29:43;;;;;;;43.58;17.23;;;;;;;;;;1041396;28;20065;-67
2023/12/03 01:30:13;;;;;;;49.05;16.50;;;;;;;;;;1044279;28;20048;-67
2023/12/03 01:30:44;;;;;;;42.08;16.35;;;;;;;;;;1045000;28;20841;-67
2023/12/03 01:31:14;;;;;;;35.20;13.60;;;;;;;;;;1044766;28;20127;-67
2023/12/03 01:31:45;;;;;;;40.42;15.23;;;;;;;;;;1050139;28;20385;-67
2023/12/03 01:32:16;;;;;;;39.88;16.88;;;;;;;;;;1046657;28;20106;-67
2023/12/03 01:32:46;;;;;;;49.65;18.55;;;;;;;;;;1049696;28;20094;-67
2023/12/03 01:33:17;;;;;;;36.95;16.55;;;;;;;;;;1048377;28;20504;-66
2023/12/03 01:33:47;;;;;;;41.40;15.40;;;;;;;;;;1050263;28;20123;-67
2023/12/03 01:34:18;;;;;;;34.53;15.65;;;;;;;;;;1048778;28;20056;-67
2023/12/03 01:34:48;;;;;;;46.95;17.80;;;;;;;;;;1048947;28;20055;-67
2023/12/03 01:35:19;;;;;;;42.03;16.02;;;;;;;;;;1048381;28;20044;-67
2023/12/03 01:35:50;;;;;;;39.00;14.40;;;;;;;;;;1048954;28;20141;-67
2023/12/03 01:36:20;;;;;;;38.88;16.05;;;;;;;;;;1048608;28;20058;-67
2023/12/03 01:36:51;;;;;;;27.70;12.40;;;;;;;;;;1050129;28;20564;-67
2023/12/03 01:37:21;;;;;;;41.25;15.50;;;;;;;;;;1048335;28;20044;-66
2023/12/03 01:37:52;;;;;;;40.92;15.45;;;;;;;;;;1049423;28;20059;-67
2023/12/03 01:38:22;;;;;;;45.67;17.90;;;;;;;;;;1048852;28;20044;-67
2023/12/03 01:38:53;;;;;;;38.38;15.60;;;;;;;;;;1048421;28;20058;-67
2023/12/03 01:39:23;;;;;;;36.78;14.52;;;;;;;;;;1048774;28;20048;-67
2023/12/03 01:39:54;;;;;;;35.58;15.43;;;;;;;;;;1048434;28;20040;-67
2023/12/03 01:40:25;;;;;;;42.78;16.63;;;;;;;;;;1049725;28;20680;-67
2023/12/03 01:40:55;;;;;;;39.92;16.40;;;;;;;;;;1047628;28;20049;-67
2023/12/03 01:41:26;;;;;;;36.30;14.05;;;;;;;;;;1048551;28;20075;-66
2023/12/03 01:41:57;;;;;;;44.00;17.38;;;;;;;;;;1048812;28;20468;-67
2023/12/03 01:42:27;;;;;;;42.90;15.70;;;;;;;;;;1047322;28;20049;-67
2023/12/03 01:42:58;;;;;;;39.22;15.70;;;;;;;;;;1047839;28;20048;-67
2023/12/03 01:43:29;;;;;;;37.03;16.10;;;;;;;;;;1047147;28;20040;-67
2023/12/03 01:44:00;;;;;;;40.28;16.95;;;;;;;;;;1050281;28;20044;-67
2023/12/03 01:44:30;;;;;;;39.05;16.80;;;;;;;;;;1045211;28;20051;-67
2023/12/03 01:45:01;;;;;;;34.33;14.55;;;;;;;;;;1045065;28;20037;-67
2023/12/03 01:45:32;;;;;;;37.67;13.90;;;;;;;;;;1043867;28;20052;-67
2023/12/03 01:46:02;;;;;;;41.78;16.65;;;;;;;;;;1044887;28;20040;-67
2023/12/03 01:46:33;;;;;;;41.08;17.33;;;;;;;;;;1041465;28;20443;-67
2023/12/03 01:47:05;;;;;;;47.17;16.88;;;;;;;;;;1043268;28;20124;-67
2023/12/03 01:47:35;;;;;;;35.53;15.18;;;;;;;;;;1042805;28;20044;-67
2023/12/03 01:48:06;;;;;;;44.80;18.45;;;;;;;;;;1045793;28;20053;-67
2023/12/03 01:48:36;;;;;;;52.58;17.45;;;;;;;;;;1041655;28;20480;-67
2023/12/03 01:49:07;;;;;;;50.63;18.83;;;;;;;;;;1045996;28;20094;-67
2023/12/03 01:49:38;;;;;;;41.78;15.70;;;;;;;;;;1046537;28;20705;-67
2023/12/03 01:50:11;;;;;;;44.95;17.42;;;;;;;;;;1047246;28;20548;-67
2023/12/03 01:50:42;;;;;;;44.42;16.45;;;;;;;;;;1045210;28;20068;-67
2023/12/03 01:51:13;;;;;;;31.25;14.55;;;;;;;;;;1045778;28;20040;-67
2023/12/03 01:51:45;;;;;;;42.92;16.83;;;;;;;;;;1046612;28;20056;-67
2023/12/03 01:52:16;;;;;;;36.88;13.95;;;;;;;;;;1044147;28;20498;-67
2023/12/03 01:52:47;;;;;;;42.15;15.30;;;;;;;;;;1045670;28;20494;-67
2023/12/03 01:53:18;;;;;;;44.05;17.45;;;;;;;;;;1046392;28;20460;-67
2023/12/03 01:53:49;;;;;;;40.92;16.45;;;;;;;;;;1048427;28;20048;-66
2023/12/03 01:54:20;;;;;;;42.55;16.77;;;;;;;;;;1044654;28;20047;-67
2023/12/03 01:54:51;;;;;;;40.42;17.58;;;;;;;;;;1044159;28;20082;-67
2023/12/03 01:55:22;;;;;;;36.55;15.18;;;;;;;;;;1046614;28;20051;-67
2023/12/03 01:55:52;;;;;;;43.22;15.57;;;;;;;;;;1052973;28;20059;-67
2023/12/03 01:56:23;;;;;;;40.45;16.10;;;;;;;;;;1051705;28;20077;-67
2023/12/03 01:56:54;;;;;;;47.45;17.55;;;;;;;;;;1052016;28;20723;-67
2023/12/03 01:57:26;;;;;;;36.88;15.18;;;;;;;;;;1053027;28;20050;-67
2023/12/03 01:57:57;;;;;;;44.78;18.45;;;;;;;;;;1047941;28;20043;-67
2023/12/03 01:58:28;;;;;;;49.20;18.33;;;;;;;;;;1050376;28;20036;-67
2023/12/03 01:59:00;;;;;;;38.10;16.10;;;;;;;;;;1050172;28;20051;-67
2023/12/03 01:59:33;;;;;;;42.95;17.05;;;;;;;;;;1050629;28;20098;-67
2023/12/03 02:00:05;;;;;;;45.45;17.50;;;;;;;;;;1048814;28;20063;-67
2023/12/03 02:00:36;;;;;;;42.10;16.00;;;;;;;;;;1049598;28;20131;-67
2023/12/03 02:01:07;;;;;;;43.13;16.50;;;;;;;;;;1047219;28;20044;-67
2023/12/03 02:01:37;;;;;;;43.25;17.85;;;;;;;;;;1045310;28;20044;-67
2023/12/03 02:02:08;;;;;;;42.00;17.77;;;;;;;;;;1046430;28;20859;-67
2023/12/03 02:02:40;;;;;;;46.15;18.08;;;;;;;;;;1044095;28;20128;-67
2023/12/03 02:03:10;;;;;;;48.70;18.58;;;;;;;;;;1045928;28;20515;-67
2023/12/03 02:03:41;;;;;;;38.78;17.13;;;;;;;;;;1042186;28;20063;-67
2023/12/03 02:04:12;;;;;;;42.85;17.23;;;;;;;;;;1043594;28;20044;-67
2023/12/03 02:04:42;;;;;;;36.15;15.40;;;;;;;;;;1047976;28;20056;-66
2023/12/03 02:05:13;;;;;;;46.22;18.98;;;;;;;;;;1050495;28;20048;-67
2023/12/03 02:05:49;;;;;;;46.55;19.52;;;;;;;;;;1045666;28;20053;-67
2023/12/03 02:06:19;;;;;;;49.78;17.05;;;;;;;;;;1046298;28;20036;-67
2023/12/03 02:06:50;;;;;;;44.42;18.02;;;;;;;;;;1043210;28;20059;-67
2023/12/03 02:07:20;;;;;;;37.70;17.45;;;;;;;;;;1045175;28;20048;-67
2023/12/03 02:07:51;;;;;;;45.50;18.77;;;;;;;;;;1045739;28;20155;-67
2023/12/03 02:08:22;;;;;;;43.35;18.48;;;;;;;;;;1046365;28;20091;-67
2023/12/03 02:08:53;;;;;;;46.25;18.13;;;;;;;;;;1045222;28;20037;-67
2023/12/03 02:09:24;;;;;;;44.55;17.52;;;;;;;;;;1046489;28;20138;-67
2023/12/03 02:09:56;;;;;;;49.90;17.55;;;;;;;;;;1050325;28;20116;-67
2023/12/03 02:10:27;;;;;;;46.88;17.77;;;;;;;;;;1049575;28;20769;-67
2023/12/03 02:10:59;;;;;;;45.00;19.55;;;;;;;;;;1047662;28;20048;-67
2023/12/03 02:11:30;;;;;;;47.50;19.30;;;;;;;;;;1050148;28;20068;-67
2023/12/03 02:12:01;;;;;;;49.08;18.85;;;;;;;;;;1049210;28;20048;-67
2023/12/03 02:12:32;;;;;;;49.83;18.27;;;;;;;;;;1048651;28;20043;-67
2023/12/03 02:13:03;;;;;;;46.75;19.17;;;;;;;;;;1050233;28;20059;-67
2023/12/03 02:13:38;;;;;;;43.03;18.70;;;;;;;;;;1049411;28;20046;-67
2023/12/03 02:14:09;;;;;;;57.55;19.25;;;;;;;;;;1050139;28;20047;-67
2023/12/03 02:14:40;;;;;;;46.35;18.75;;;;;;;;;;1048346;28;20047;-67
2023/12/03 02:15:11;;;;;;;45.38;18.55;;;;;;;;;;1050117;28;20052;-67
2023/12/03 02:15:41;;;;;;;59.15;18.98;;;;;;;;;;1049533;28;20144;-67
2023/12/03 02:16:12;;;;;;;37.85;17.50;;;;;;;;;;1050118;28;20101;-67
2023/12/03 02:16:47;;;;;;;47.80;17.40;;;;;;;;;;1043016;28;20061;-67
2023/12/03 02:17:18;;;;;;;39.58;16.60;;;;;;;;;;1044694;28;20055;-67
2023/12/03 02:17:49;;;;;;;48.45;18.73;;;;;;;;;;1045636;28;20063;-66
2023/12/03 02:18:20;;;;;;;47.15;18.15;;;;;;;;;;1044824;28;20072;-67
2023/12/03 02:18:50;;;;;;;42.22;17.65;;;;;;;;;;1046444;28;20052;-67
2023/12/03 02:19:21;;;;;;;39.63;16.77;;;;;;;;;;1046424;28;20060;-67
2023/12/03 02:19:51;;;;;;;46.42;19.92;;;;;;;;;;1045583;28;20064;-67
2023/12/03 02:20:22;;;;;;;42.20;17.85;;;;;;;;;;1043747;28;20048;-67
2023/12/03 02:20:54;;;;;;;55.13;21.13;;;;;;;;;;1046395;28;20053;-67
2023/12/03 02:21:24;;;;;;;50.47;19.48;;;;;;;;;;1047281;28;20055;-67
2023/12/03 02:21:55;;;;;;;46.97;19.95;;;;;;;;;;1050215;28;20059;-67
2023/12/03 02:22:25;;;;;;;45.85;18.88;;;;;;;;;;1046204;28;20055;-67
2023/12/03 02:23:02;;;;;;;48.95;19.92;;;;;;;;;;1045495;28;20036;-67
2023/12/03 02:23:33;;;;;;;45.72;18.83;;;;;;;;;;1045910;28;20086;-67
2023/12/03 02:24:03;;;;;;;33.67;15.73;;;;;;;;;;1045344;28;20154;-67
2023/12/03 02:24:34;;;;;;;50.15;22.48;;;;;;;;;;1048442;28;20403;-67
2023/12/03 02:25:05;;;;;;;51.58;20.40;;;;;;;;;;1049028;28;20098;-67
2023/12/03 02:25:36;;;;;;;46.58;20.23;;;;;;;;;;1049653;28;20603;-67
2023/12/03 02:26:07;;;;;;;49.35;19.95;;;;;;;;;;1049463;28;20040;-67
2023/12/03 02:26:37;;;;;;;44.70;18.55;;;;;;;;;;1049790;28;20119;-67
2023/12/03 02:27:08;;;;;;;49.78;20.70;;;;;;;;;;1049288;28;20036;-67
2023/12/03 02:27:38;;;;;;;53.63;21.05;;;;;;;;;;1049851;28;20048;-67
2023/12/03 02:28:09;;;;;;;49.40;19.02;;;;;;;;;;1049893;28;20059;-68
2023/12/03 02:28:39;;;;;;;49.80;19.30;;;;;;;;;;1050015;28;20162;-67
2023/12/03 02:29:10;;;;;;;52.53;20.83;;;;;;;;;;1049127;28;20063;-67
2023/12/03 02:29:41;;;;;;;48.47;20.65;;;;;;;;;;1049840;28;20101;-67
2023/12/03 02:30:11;;;;;;;44.35;18.67;;;;;;;;;;1048315;28;20700;-67
2023/12/03 02:30:42;;;;;;;52.80;21.08;;;;;;;;;;1049283;28;20147;-67
2023/12/03 02:31:13;;;;;;;47.83;21.48;;;;;;;;;;1047292;28;20040;-67
2023/12/03 02:31:44;;;;;;;43.67;19.58;;;;;;;;;;1049008;28;20075;-67
2023/12/03 02:32:15;;;;;;;51.75;19.92;;;;;;;;;;1048670;28;20074;-67
2023/12/03 02:32:45;;;;;;;47.40;19.33;;;;;;;;;;1049479;28;20048;-67
2023/12/03 02:33:16;;;;;;;51.63;19.63;;;;;;;;;;1048922;28;20048;-66
2023/12/03 02:34:12;;;;;;;49.70;20.00;;;;;;;;;;1050001;28;20044;-67
2023/12/03 02:34:42;;;;;;;50.20;19.90;;;;;;;;;;1046316;28;20044;-67
2023/12/03 02:35:13;;;;;;;50.35;20.42;;;;;;;;;;1043815;28;20044;-67
2023/12/03 02:35:43;;;;;;;44.40;19.67;;;;;;;;;;1046140;28;20059;-66
2023/12/03 02:36:14;;;;;;;43.85;20.15;;;;;;;;;;1044761;28;20051;-67
2023/12/03 02:36:45;;;;;;;47.17;19.67;;;;;;;;;;1045584;28;20122;-67
2023/12/03 02:37:16;;;;;;;51.83;20.73;;;;;;;;;;1042826;28;20052;-67
2023/12/03 02:37:46;;;;;;;50.50;20.08;;;;;;;;;;1044095;28;20106;-67
2023/12/03 02:38:17;;;;;;;52.42;19.63;;;;;;;;;;1046300;28;20052;-67
2023/12/03 02:38:47;;;;;;;51.92;18.60;;;;;;;;;;1051009;28;20055;-67
2023/12/03 02:39:18;;;;;;;46.97;20.92;;;;;;;;;;1049746;28;20051;-67
2023/12/03 02:39:48;;;;;;;47.70;20.20;;;;;;;;;;1048938;28;20147;-67
2023/12/03 02:40:19;;;;;;;51.25;19.92;;;;;;;;;;1050316;28;20162;-67
2023/12/03 02:40:49;;;;;;;46.13;20.27;;;;;;;;;;1048667;28;20047;-67
2023/12/03 02:41:20;;;;;;;48.30;20.35;;;;;;;;;;1049156;28;21042;-67
2023/12/03 02:41:50;;;;;;;47.22;20.25;;;;;;;;;;1049206;28;20206;-67
2023/12/03 02:42:21;;;;;;;53.60;20.95;;;;;;;;;;1048151;28;20040;-67
2023/12/03 02:42:51;;;;;;;44.28;19.27;;;;;;;;;;1049057;28;20129;-67
2023/12/03 02:43:22;;;;;;;43.15;20.15;;;;;;;;;;1049762;28;20131;-67
2023/12/03 02:43:53;;;;;;;48.22;20.35;;;;;;;;;;1050461;28;20044;-67
2023/12/03 02:44:23;;;;;;;47.72;19.42;;;;;;;;;;1048912;28;20040;-67
2023/12/03 02:44:54;;;;;;;48.10;19.25;;;;;;;;;;1049606;28;20040;-67
2023/12/03 02:45:24;;;;;;;48.63;21.45;;;;;;;;;;1048360;28;20044;-67
2023/12/03 02:45:55;;;;;;;55.95;20.85;;;;;;;;;;1050075;28;20048;-67
2023/12/03 02:46:25;;;;;;;48.08;20.33;;;;;;;;;;1047570;28;20040;-67
2023/12/03 02:46:56;;;;;;;46.83;19.15;;;;;;;;;;1050064;28;20040;-67
2023/12/03 02:47:26;;;;;;;53.53;20.20;;;;;;;;;;1048320;28;20048;-67
2023/12/03 02:47:57;;;;;;;49.17;19.23;;;;;;;;;;1050308;28;20059;-67
2023/12/03 02:48:28;;;;;;;49.45;20.58;;;;;;;;;;1047942;28;20048;-67
2023/12/03 02:48:58;;;;;;;43.50;19.75;;;;;;;;;;1051045;28;20048;-67
2023/12/03 02:49:29;;;;;;;47.33;19.55;;;;;;;;;;1048801;28;20426;-67
2023/12/03 02:50:00;;;;;;;46.03;19.48;;;;;;;;;;1049449;28;20207;-67
2023/12/03 02:50:30;;;;;;;44.45;19.13;;;;;;;;;;1049047;28;20400;-67
2023/12/03 02:51:01;;;;;;;46.63;20.05;;;;;;;;;;1048805;28;20690;-67
2023/12/03 02:51:31;;;;;;;40.75;19.38;;;;;;;;;;1048842;28;20073;-67
2023/12/03 02:52:02;;;;;;;43.55;18.15;;;;;;;;;;1050305;28;20089;-67
2023/12/03 02:52:33;;;;;;;44.80;18.75;;;;;;;;;;1048176;28;20097;-67
2023/12/03 02:53:04;;;;;;;42.60;19.00;;;;;;;;;;1048567;28;20044;-67
2023/12/03 02:53:38;;;;;;;41.03;17.67;;;;;;;;;;1049765;28;20062;-67
2023/12/03 02:54:08;;;;;;;44.67;18.63;;;;;;;;;;1049550;28;20102;-67
2023/12/03 02:54:39;;;;;;;45.00;19.00;;;;;;;;;;1048396;28;20060;-67
2023/12/03 02:55:09;;;;;;;48.47;20.15;;;;;;;;;;1047380;28;20054;-67
2023/12/03 02:55:40;;;;;;;42.28;17.50;;;;;;;;;;1049061;28;20048;-67
2023/12/03 02:56:14;;;;;;;43.28;18.77;;;;;;;;;;1050089;28;20044;-67
2023/12/03 02:56:45;;;;;;;36.97;17.00;;;;;;;;;;1043689;28;20076;-67
2023/12/03 02:57:16;;;;;;;43.55;19.98;;;;;;;;;;1041959;28;20037;-68
2023/12/03 02:57:46;;;;;;;47.35;20.20;;;;;;;;;;1044348;28;20528;-67
2023/12/03 02:58:17;;;;;;;41.50;18.35;;;;;;;;;;1046553;28;20058;-67
2023/12/03 02:58:47;;;;;;;47.50;20.73;;;;;;;;;;1047366;28;20713;-67
2023/12/03 02:59:18;;;;;;;47.92;19.00;;;;;;;;;;1046066;28;20052;-67
2023/12/03 02:59:49;;;;;;;48.65;19.95;;;;;;;;;;1044461;28;20041;-67